Register, Georgia
Current Conditions -  °F | °C
As of 3:15 PM on Monday 24 Nov 2014 (Local Time) from KTBR Reporting Station
Thunderstorm Thunderstorm  
Wind Chill: 67°   Ceiling: 6000
Heat Index: 67°   Visibility: 10mi
Dew Point: 67°   Wind: 5mph
Humidity: 100%   Direction: 220°SW
Pressure: 29.87"   Gusts: NA
Location:  32.37°N, 81.88°W
Report Text: KTBR 242015Z AUTO 22004KT 10SM VCTS OVC060 20/20 A2987 RMK AO2 LTG DSNT NE SW AND W T01970197
Loading
Personal Weather Stations






























Interactive Weather Map New forecast layout! Learn more

10-Day Weather Forecast

Advertisements
Track Severe Weather on mobile